Time;durP1;ratioP1;P1;durP2;ratioP2;P2;SDS_P1;SDS_P2;PMS_P1;PMS_P2;Temp;Humidity;BMP_temperature;BMP_pressure;BME280_temperature;BME280_humidity;BME280_pressure;Samples;Min_cycle;Max_cycle;Signal;HPM_P1;HPM_P2
2022/08/13 03:01:20;;;;;;;2.15;0.30;;;15.70;72.80;;;;;;5736432;23;88801;-81
2022/08/13 03:03:45;;;;;;;2.47;0.30;;;15.70;72.60;;;;;;4823875;29;86524;-79
2022/08/13 03:06:11;;;;;;;3.05;0.38;;;15.70;72.80;;;;;;4823655;29;86876;-80
2022/08/13 03:08:38;;;;;;;1.65;0.40;;;15.70;72.30;;;;;;4830734;29;86957;-81
2022/08/13 03:11:04;;;;;;;1.08;0.30;;;15.80;72.40;;;;;;4842132;29;86807;-80
2022/08/13 03:13:35;;;;;;;1.85;0.20;;;15.80;72.50;;;;;;4823417;29;87347;-82
2022/08/13 03:16:03;;;;;;;3.83;0.50;;;15.80;73.10;;;;;;4821676;29;87702;-81
2022/08/13 03:18:30;;;;;;;1.02;0.20;;;15.70;73.30;;;;;;4824902;29;86518;-84
2022/08/13 03:20:55;;;;;;;2.53;0.52;;;15.70;72.70;;;;;;4823861;29;86365;-82
2022/08/13 03:23:23;;;;;;;3.30;0.50;;;15.70;72.90;;;;;;4824276;29;88147;-83
2022/08/13 03:25:50;;;;;;;0.73;0.20;;;15.60;73.70;;;;;;4822624;29;88042;-81
2022/08/13 03:28:16;;;;;;;2.85;0.52;;;15.40;74.50;;;;;;4824643;29;86850;-81
2022/08/13 03:30:43;;;;;;;1.38;0.30;;;15.20;75.00;;;;;;4823738;29;87112;-85
2022/08/13 03:33:11;;;;;;;1.42;0.30;;;15.40;76.10;;;;;;4822655;29;87799;-84
2022/08/13 03:35:37;;;;;;;4.30;0.22;;;15.40;74.50;;;;;;4822175;29;86770;-83
2022/08/13 03:38:08;;;;;;;2.00;0.50;;;15.40;74.30;;;;;;4824405;29;86640;-84
2022/08/13 03:43:20;;;;;;;1.77;0.30;;;15.30;75.10;;;;;;4822647;29;86819;-82
2022/08/13 03:45:46;;;;;;;1.30;0.25;;;15.30;74.80;;;;;;4816802;29;87007;-83
2022/08/13 03:48:14;;;;;;;2.45;0.20;;;15.20;76.30;;;;;;4820556;29;87693;-83
2022/08/13 03:50:44;;;;;;;0.90;0.20;;;15.20;75.80;;;;;;4827027;29;86841;-82
2022/08/13 03:53:10;;;;;;;2.53;0.30;;;15.10;76.10;;;;;;4825565;29;86575;-81
2022/08/13 03:55:42;;;;;;;1.73;0.38;;;15.10;75.40;;;;;;4822195;29;87108;-82
2022/08/13 03:58:10;;;;;;;1.50;0.30;;;15.20;75.60;;;;;;4824416;29;86814;-83
2022/08/13 04:00:42;;;;;;;2.35;0.30;;;15.10;75.80;;;;;;4823176;29;87067;-82
2022/08/13 04:03:22;;;;;;;1.83;0.30;;;15.00;76.30;;;;;;4820326;29;87288;-83
2022/08/13 04:05:57;;;;;;;1.13;0.30;;;15.00;75.30;;;;;;4822055;29;86424;-83
2022/08/13 04:08:27;;;;;;;1.88;0.30;;;15.10;76.80;;;;;;4822984;29;86885;-83
2022/08/13 04:10:53;;;;;;;1.05;0.25;;;15.00;77.10;;;;;;4824140;29;86745;-85
2022/08/13 04:13:20;;;;;;;3.33;0.30;;;15.00;77.40;;;;;;4823527;29;87629;-85
2022/08/13 04:15:46;;;;;;;2.08;0.40;;;15.00;77.30;;;;;;4821623;29;88646;-85
2022/08/13 04:18:13;;;;;;;2.83;0.50;;;15.00;76.30;;;;;;4824345;29;86235;-85
2022/08/13 04:20:52;;;;;;;0.90;0.20;;;14.90;77.70;;;;;;4829810;29;86663;-86
2022/08/13 04:23:19;;;;;;;1.60;0.40;;;14.90;76.90;;;;;;4831820;29;87504;-85
2022/08/13 04:25:46;;;;;;;2.55;0.60;;;14.90;77.60;;;;;;4822046;29;86310;-85
2022/08/13 04:28:14;;;;;;;2.38;0.77;;;14.90;79.10;;;;;;4823449;29;86843;-86
2022/08/13 04:30:41;;;;;;;3.42;0.60;;;14.90;77.90;;;;;;4823825;29;85832;-85
2022/08/13 04:33:11;;;;;;;1.85;0.50;;;14.90;79.00;;;;;;4823172;29;86594;-86
2022/08/13 04:35:38;;;;;;;1.98;0.82;;;14.90;79.40;;;;;;4812555;29;87072;-86
2022/08/13 04:38:07;;;;;;;3.08;1.23;;;14.80;80.70;;;;;;4823235;29;87489;-83
2022/08/13 04:40:35;;;;;;;3.85;1.52;;;14.90;80.80;;;;;;4828292;29;87033;-84
2022/08/13 04:43:01;;;;;;;5.82;1.40;;;15.20;80.70;;;;;;4823543;29;87098;-84
2022/08/13 04:45:28;;;;;;;3.22;1.00;;;15.60;80.10;;;;;;4821691;29;86801;-85
2022/08/13 04:47:58;;;;;;;4.32;1.30;;;16.30;78.60;;;;;;4823154;29;86489;-85
2022/08/13 04:50:25;;;;;;;3.28;0.90;;;17.10;75.80;;;;;;4823163;29;86275;-83
2022/08/13 04:52:51;;;;;;;2.80;1.13;;;17.70;73.30;;;;;;4824198;29;86801;-86
2022/08/13 04:55:18;;;;;;;4.13;1.77;;;18.20;72.30;;;;;;4822430;29;86496;-85
2022/08/13 04:57:44;;;;;;;4.72;1.08;;;18.30;70.50;;;;;;4823143;29;86918;-87
2022/08/13 05:00:10;;;;;;;5.20;1.50;;;18.60;70.00;;;;;;4825386;29;86998;-85
2022/08/13 05:02:43;;;;;;;3.50;1.33;;;19.30;68.10;;;;;;4831559;29;90078;-85
2022/08/13 05:05:12;;;;;;;8.35;1.33;;;19.50;66.70;;;;;;4824368;29;88380;-84
2022/08/13 05:07:39;;;;;;;4.53;1.90;;;19.70;66.00;;;;;;4822709;29;86338;-84
2022/08/13 05:10:08;;;;;;;6.63;1.70;;;19.80;65.20;;;;;;4826464;29;86414;-86
2022/08/13 05:12:38;;;;;;;4.78;1.70;;;20.40;63.10;;;;;;4824943;29;87519;-86
2022/08/13 05:15:06;;;;;;;3.97;1.60;;;20.50;64.20;;;;;;4823432;29;86981;-87
2022/08/13 05:17:32;;;;;;;5.50;1.45;;;20.50;63.20;;;;;;4817735;29;86828;-87
2022/08/13 05:19:59;;;;;;;4.80;1.85;;;20.80;63.50;;;;;;4821644;29;85719;-87
2022/08/13 05:22:26;;;;;;;6.10;2.22;;;21.40;60.00;;;;;;4825024;29;87266;-86
2022/08/13 05:24:52;;;;;;;5.70;2.05;;;21.00;62.20;;;;;;4825107;29;87030;-83
2022/08/13 05:27:18;;;;;;;6.13;1.65;;;21.40;61.40;;;;;;4824446;29;87821;-84
2022/08/13 05:29:44;;;;;;;2.90;1.40;;;22.20;58.20;;;;;;4824123;29;88072;-83
2022/08/13 05:32:10;;;;;;;2.30;1.15;;;22.40;57.60;;;;;;4825237;29;87695;-83
2022/08/13 05:34:37;;;;;;;2.75;1.15;;;22.30;58.90;;;;;;4825196;29;87047;-83
2022/08/13 05:37:06;;;;;;;3.78;1.30;;;22.30;57.50;;;;;;4824812;29;87470;-83
2022/08/13 05:39:32;;;;;;;2.92;1.05;;;21.70;59.20;;;;;;4825047;29;86902;-83
2022/08/13 05:41:58;;;;;;;5.25;1.00;;;21.50;59.20;;;;;;4824843;29;87321;-83
2022/08/13 05:44:24;;;;;;;3.90;1.17;;;21.60;59.70;;;;;;4823763;29;87183;-82
2022/08/13 05:46:50;;;;;;;2.05;0.90;;;22.20;57.60;;;;;;4825483;29;86362;-86
2022/08/13 05:49:16;;;;;;;3.83;1.70;;;22.80;56.70;;;;;;4822517;29;86925;-86
2022/08/13 05:51:45;;;;;;;2.83;1.20;;;22.50;58.10;;;;;;4823843;29;88453;-85
2022/08/13 05:54:11;;;;;;;3.90;1.20;;;23.50;56.50;;;;;;4822295;29;88835;-87
2022/08/13 05:56:38;;;;;;;6.15;1.27;;;25.20;51.40;;;;;;4828539;29;86816;-82
2022/08/13 06:04:38;;;;;;;4.85;1.48;;;27.70;48.00;;;;;;4827332;29;86242;-84
2022/08/13 06:07:04;;;;;;;4.28;1.90;;;27.90;46.70;;;;;;4824435;29;86262;-84
2022/08/13 06:09:30;;;;;;;3.58;1.73;;;28.00;46.10;;;;;;4829578;29;85743;-84
2022/08/13 06:11:59;;;;;;;4.18;1.55;;;28.60;44.90;;;;;;4824384;29;87131;-85
2022/08/13 06:14:25;;;;;;;;;;;28.00;46.40;;;;;;4827078;29;87434;-82
2022/08/13 06:16:51;;;;;;;2.95;1.65;;;28.50;44.90;;;;;;4826277;29;88071;-84
2022/08/13 06:19:24;;;;;;;4.35;1.50;;;27.90;45.30;;;;;;4825905;29;86950;-84
2022/08/13 06:21:51;;;;;;;2.70;1.90;;;27.30;47.60;;;;;;4827269;29;86604;-82
2022/08/13 06:24:17;;;;;;;4.93;1.27;;;27.10;46.30;;;;;;4830630;29;86942;-78
2022/08/13 06:26:42;;;;;;;2.95;1.23;;;26.80;47.50;;;;;;4828888;29;86242;-81
2022/08/13 06:29:09;;;;;;;2.88;1.42;;;26.40;47.90;;;;;;4830551;29;86441;-81
2022/08/13 06:31:38;;;;;;;2.58;1.17;;;27.80;46.40;;;;;;4829989;29;86581;-82
2022/08/13 06:34:08;;;;;;;2.85;1.52;;;27.60;46.00;;;;;;4823707;29;86241;-82
2022/08/13 06:36:36;;;;;;;2.83;1.48;;;28.40;46.50;;;;;;4824109;29;86858;-84
2022/08/13 06:39:05;;;;;;;4.82;1.60;;;30.30;43.60;;;;;;4826954;29;86620;-81
2022/08/13 06:41:34;;;;;;;3.53;1.35;;;30.40;42.90;;;;;;4821562;29;87891;-80
2022/08/13 06:44:01;;;;;;;5.30;1.42;;;29.60;44.00;;;;;;4827316;29;87928;-86
2022/08/13 06:46:28;;;;;;;3.17;1.00;;;29.70;43.60;;;;;;4827401;29;86996;-86
2022/08/13 06:48:57;;;;;;;2.75;1.25;;;31.80;41.40;;;;;;4825794;29;86322;-85
2022/08/13 06:51:23;;;;;;;4.28;1.83;;;30.90;41.90;;;;;;4827225;29;87118;-85
2022/08/13 06:53:49;;;;;;;8.23;2.00;;;32.30;40.00;;;;;;4830086;29;86176;-82
2022/08/13 06:56:22;;;;;;;3.38;1.35;;;32.40;39.50;;;;;;4831630;29;86457;-82
2022/08/13 06:58:49;;;;;;;4.22;1.33;;;31.80;39.40;;;;;;4831149;29;85980;-87
2022/08/13 07:01:21;;;;;;;3.40;1.33;;;32.70;39.60;;;;;;4826404;29;86887;-85
2022/08/13 07:03:48;;;;;;;4.32;1.67;;;34.30;36.80;;;;;;4836615;29;87265;-85
2022/08/13 07:06:19;;;;;;;5.13;1.88;;;35.50;36.60;;;;;;4829409;29;87508;-85
2022/08/13 07:08:45;;;;;;;2.92;1.27;;;35.40;37.20;;;;;;4825515;29;87605;-86
2022/08/13 07:11:23;;;;;;;2.83;2.00;;;37.60;36.10;;;;;;4829188;29;86734;-82
2022/08/13 07:14:11;;;;;;;3.45;2.10;;;38.80;33.70;;;;;;4823809;29;87275;-83
2022/08/13 07:16:37;;;;;;;4.75;2.28;;;37.70;35.00;;;;;;4838425;29;86878;-85
2022/08/13 07:19:03;;;;;;;2.72;1.67;;;35.50;35.80;;;;;;4832218;29;86277;-85
2022/08/13 07:21:31;;;;;;;2.38;1.50;;;34.70;35.50;;;;;;4827107;29;87065;-84
2022/08/13 07:24:00;;;;;;;4.20;1.95;;;35.70;34.80;;;;;;4824495;29;86175;-87
2022/08/13 07:26:30;;;;;;;4.40;2.13;;;36.00;34.20;;;;;;4822344;29;86545;-85
2022/08/13 07:28:56;;;;;;;3.75;1.80;;;37.10;34.10;;;;;;4824014;29;86347;-85
2022/08/13 07:31:30;;;;;;;2.08;1.75;;;38.30;32.80;;;;;;4829964;29;88365;-84
2022/08/13 07:33:59;;;;;;;3.33;1.95;;;38.30;32.10;;;;;;4824784;29;87862;-85
2022/08/13 07:36:30;;;;;;;3.08;2.20;;;39.50;31.40;;;;;;4823003;29;86354;-83
2022/08/13 07:38:57;;;;;;;4.18;2.30;;;39.00;31.00;;;;;;4826256;29;86920;-85
2022/08/13 07:41:24;;;;;;;5.28;2.50;;;40.40;31.80;;;;;;4826150;29;87448;-84
2022/08/13 07:43:49;;;;;;;2.38;1.75;;;41.60;30.30;;;;;;4825542;29;87530;-84
2022/08/13 07:46:17;;;;;;;2.90;2.22;;;41.20;30.20;;;;;;4828557;29;86814;-85
2022/08/13 07:48:47;;;;;;;4.38;2.97;;;40.70;32.00;;;;;;4830152;29;85697;-84
2022/08/13 07:51:19;;;;;;;5.53;3.03;;;41.40;31.00;;;;;;4827833;29;86735;-83
2022/08/13 07:53:47;;;;;;;3.55;2.25;;;43.70;30.00;;;;;;4825412;29;87311;-84
2022/08/13 07:56:18;;;;;;;4.90;2.75;;;44.60;28.90;;;;;;4823456;29;89350;-83
2022/08/13 07:58:44;;;;;;;3.33;2.67;;;44.70;29.40;;;;;;4821771;29;86222;-84
2022/08/13 08:01:11;;;;;;;5.30;3.65;;;45.40;29.10;;;;;;4825798;29;86786;-84
2022/08/13 08:03:41;;;;;;;6.45;3.78;;;45.60;29.10;;;;;;4823989;29;87198;-87
2022/08/13 08:06:10;;;;;;;5.53;3.35;;;46.40;28.00;;;;;;4824589;29;86245;-85
2022/08/13 08:08:42;;;;;;;3.35;2.70;;;46.40;28.20;;;;;;4824433;29;86678;-86
2022/08/13 08:11:09;;;;;;;4.28;2.88;;;45.90;28.40;;;;;;4823999;29;87224;-84
2022/08/13 08:13:38;;;;;;;7.57;3.53;;;46.20;28.90;;;;;;4823184;29;86924;-83
2022/08/13 08:16:04;;;;;;;4.28;3.88;;;46.20;28.80;;;;;;4826184;29;86488;-90
2022/08/13 08:18:31;;;;;;;4.07;3.17;;;47.20;28.50;;;;;;4825821;29;87566;-85
2022/08/13 08:21:06;;;;;;;4.78;3.45;;;47.30;27.60;;;;;;4821412;29;88975;-86
2022/08/13 08:23:35;;;;;;;4.95;3.55;;;46.70;28.00;;;;;;4824794;29;87765;-85
2022/08/13 08:26:06;;;;;;;4.55;3.88;;;46.10;29.10;;;;;;4822846;29;86364;-83
2022/08/13 08:28:33;;;;;;;4.72;4.32;;;46.50;28.30;;;;;;4822708;29;86673;-87
2022/08/13 08:31:00;;;;;;;5.40;4.90;;;44.70;28.70;;;;;;4810839;29;87263;-86
2022/08/13 08:33:26;;;;;;;5.28;4.28;;;45.50;29.20;;;;;;4821801;29;86930;-87
2022/08/13 08:35:54;;;;;;;5.70;4.78;;;45.40;29.50;;;;;;4823912;29;87475;-89
2022/08/13 08:43:53;;;;;;;5.68;3.88;;;45.90;28.70;;;;;;4811168;29;86720;-87
2022/08/13 08:46:20;;;;;;;4.97;4.25;;;45.70;29.20;;;;;;4825695;29;87717;-87
2022/08/13 08:48:47;;;;;;;4.05;3.72;;;46.40;28.90;;;;;;4822289;29;86318;-87
2022/08/13 08:51:13;;;;;;;6.28;3.95;;;46.40;28.40;;;;;;4822101;29;88034;-85
2022/08/13 08:53:44;;;;;;;4.93;4.20;;;44.80;29.80;;;;;;4823366;29;87469;-84
2022/08/13 08:56:11;;;;;;;5.28;4.63;;;46.40;28.20;;;;;;4829402;29;87059;-84
2022/08/13 08:58:41;;;;;;;4.43;4.03;;;45.00;28.90;;;;;;4824018;29;86599;-83
2022/08/13 09:01:08;;;;;;;5.80;5.05;;;44.60;30.10;;;;;;4817506;29;87517;-83
2022/08/13 09:03:38;;;;;;;4.30;3.90;;;45.40;29.20;;;;;;4823126;29;87211;-83
2022/08/13 09:06:04;;;;;;;5.00;4.15;;;47.10;28.40;;;;;;4829660;29;86339;-82
2022/08/13 09:08:32;;;;;;;4.68;4.28;;;45.60;28.70;;;;;;4832247;29;86336;-82
2022/08/13 09:11:00;;;;;;;4.93;4.53;;;45.80;29.00;;;;;;4823041;29;89940;-83
2022/08/13 09:13:26;;;;;;;5.07;4.45;;;46.60;28.60;;;;;;4824048;29;88131;-83
2022/08/13 09:15:51;;;;;;;4.68;4.20;;;45.90;29.60;;;;;;4819873;29;86840;-82
2022/08/13 09:18:18;;;;;;;4.90;4.32;;;46.50;28.90;;;;;;4820760;29;86332;-82
2022/08/13 09:20:44;;;;;;;6.57;5.18;;;47.40;28.40;;;;;;4837515;29;86974;-82
2022/08/13 09:23:12;;;;;;;4.88;4.35;;;48.50;28.50;;;;;;4843030;29;86777;-83
2022/08/13 09:25:41;;;;;;;5.00;4.57;;;49.20;28.10;;;;;;4830933;29;86574;-83
2022/08/13 09:28:08;;;;;;;4.53;4.13;;;48.00;27.90;;;;;;4823912;29;85815;-83
2022/08/13 09:30:34;;;;;;;5.95;5.45;;;47.40;28.30;;;;;;4833437;29;87202;-83
2022/08/13 09:33:02;;;;;;;7.10;6.35;;;45.10;29.40;;;;;;4829526;29;86756;-82
2022/08/13 09:35:29;;;;;;;5.13;4.07;;;46.10;29.20;;;;;;4830884;29;87218;-82
2022/08/13 09:37:56;;;;;;;6.22;5.63;;;47.30;29.00;;;;;;4835802;29;87201;-83
2022/08/13 09:40:28;;;;;;;5.28;4.80;;;49.30;27.70;;;;;;4830182;29;86768;-82
2022/08/13 09:43:02;;;;;;;6.28;5.68;;;48.70;28.20;;;;;;4830618;29;86818;-83
2022/08/13 09:45:29;;;;;;;;;;;47.60;28.40;;;;;;4827958;29;86353;-84
2022/08/13 09:47:55;;;;;;;5.85;5.38;;;46.20;28.70;;;;;;4831145;29;86671;-82
2022/08/13 09:50:24;;;;;;;6.18;5.68;;;46.70;28.60;;;;;;4825097;29;86820;-83
2022/08/13 09:52:52;;;;;;;6.20;5.70;;;48.70;27.80;;;;;;4824792;29;86831;-81
2022/08/13 09:55:19;;;;;;;5.43;4.97;;;48.50;27.70;;;;;;4819875;29;86683;-81
2022/08/13 09:57:54;;;;;;;6.43;5.90;;;49.40;27.90;;;;;;4823477;29;87201;-84
2022/08/13 10:00:24;;;;;;;6.05;5.55;;;49.90;26.80;;;;;;4824061;29;87767;-85
2022/08/13 10:02:57;;;;;;;8.20;6.32;;;50.00;27.60;;;;;;4819280;29;88112;-83
2022/08/13 10:05:32;;;;;;;5.15;4.72;;;49.80;27.50;;;;;;4822762;29;87018;-82
2022/08/13 10:08:02;;;;;;;5.35;4.88;;;49.90;27.20;;;;;;4820700;29;87929;-84
2022/08/13 10:10:29;;;;;;;5.45;4.82;;;50.20;27.40;;;;;;4821817;29;88970;-83
2022/08/13 10:12:54;;;;;;;6.30;4.78;;;50.10;27.20;;;;;;4828858;29;87529;-83
2022/08/13 10:15:20;;;;;;;6.10;4.18;;;50.60;27.20;;;;;;4825100;29;87212;-84
2022/08/13 10:17:49;;;;;;;4.80;4.25;;;50.00;26.80;;;;;;4819242;29;86362;-84
2022/08/13 10:20:24;;;;;;;7.40;4.68;;;47.10;27.00;;;;;;4817866;29;86744;-85
2022/08/13 10:22:51;;;;;;;6.45;4.47;;;46.00;28.00;;;;;;4829686;29;87024;-85
2022/08/13 10:25:17;;;;;;;4.38;4.00;;;42.00;28.70;;;;;;4825158;29;87779;-84
2022/08/13 10:27:47;;;;;;;3.65;3.35;;;38.10;32.20;;;;;;4827015;29;86755;-85
2022/08/13 10:30:13;;;;;;;2.72;2.50;;;36.30;35.40;;;;;;4829786;29;87377;-87
2022/08/13 10:32:39;;;;;;;3.72;2.58;;;34.00;37.30;;;;;;4828413;29;86593;-84
2022/08/13 10:35:05;;;;;;;4.00;2.15;;;34.00;38.00;;;;;;4825911;29;86697;-86
2022/08/13 10:37:31;;;;;;;3.65;2.13;;;33.00;38.60;;;;;;4828978;29;86549;-88
2022/08/13 10:39:58;;;;;;;2.88;1.98;;;32.40;40.40;;;;;;4829322;29;86591;-89
2022/08/13 10:42:24;;;;;;;4.03;1.30;;;31.10;42.40;;;;;;4829526;29;86305;-87
2022/08/13 10:44:54;;;;;;;2.78;1.35;;;30.20;43.40;;;;;;4827423;29;86479;-87
2022/08/13 10:47:22;;;;;;;2.83;1.70;;;30.10;43.50;;;;;;4831385;29;86239;-84
2022/08/13 10:49:49;;;;;;;3.65;1.50;;;29.90;43.10;;;;;;4828264;29;88238;-87
2022/08/13 10:52:19;;;;;;;3.22;1.63;;;29.80;45.50;;;;;;4827328;29;89594;-87
2022/08/13 10:54:46;;;;;;;3.78;1.30;;;29.80;44.00;;;;;;4827562;29;86285;-87
2022/08/13 10:57:12;;;;;;;2.35;1.27;;;29.80;45.00;;;;;;4829204;29;87106;-86
2022/08/13 10:59:39;;;;;;;2.38;1.60;;;29.60;44.80;;;;;;4828829;29;89334;-87
2022/08/13 11:02:06;;;;;;;2.78;1.42;;;29.20;45.40;;;;;;4829213;29;87662;-87
2022/08/13 11:04:33;;;;;;;2.22;0.98;;;28.90;47.60;;;;;;4839071;29;86206;-86
2022/08/13 11:07:00;;;;;;;3.88;1.10;;;28.70;46.70;;;;;;4827503;29;86860;-87
2022/08/13 11:09:26;;;;;;;2.60;1.67;;;29.00;46.90;;;;;;4831160;29;88133;-86
2022/08/13 11:11:53;;;;;;;2.00;1.13;;;28.80;46.20;;;;;;4830293;29;86359;-87
2022/08/13 11:14:18;;;;;;;1.80;1.13;;;28.60;46.40;;;;;;4824805;29;87515;-86
2022/08/13 11:17:07;;;;;;;2.03;0.90;;;28.70;46.80;;;;;;4827488;29;87080;-87
2022/08/13 11:19:33;;;;;;;2.45;1.10;;;28.60;46.00;;;;;;4826130;29;88086;-85
2022/08/13 11:21:59;;;;;;;2.70;1.20;;;28.40;48.80;;;;;;4829299;29;86575;-86
2022/08/13 11:24:25;;;;;;;3.70;1.02;;;28.60;48.00;;;;;;4827924;29;86789;-86
2022/08/13 11:26:51;;;;;;;5.40;1.45;;;28.40;49.00;;;;;;4827068;29;86665;-86
2022/08/13 11:29:17;;;;;;;3.30;1.02;;;28.80;46.60;;;;;;4826648;29;86826;-87
2022/08/13 11:31:42;;;;;;;1.73;0.95;;;29.00;47.60;;;;;;4827815;29;87021;-87
2022/08/13 11:34:08;;;;;;;1.95;0.82;;;28.80;46.40;;;;;;4825479;29;86314;-87
2022/08/13 11:36:34;;;;;;;2.97;0.77;;;29.10;46.30;;;;;;4833008;29;86970;-88
2022/08/13 11:39:01;;;;;;;3.00;1.75;;;29.00;46.70;;;;;;4828939;29;89086;-87
2022/08/13 11:41:27;;;;;;;5.75;1.38;;;28.80;46.80;;;;;;4827769;29;87774;-84
2022/08/13 11:43:53;;;;;;;1.95;1.02;;;28.80;47.80;;;;;;4827077;29;86668;-87
2022/08/13 11:46:21;;;;;;;2.35;0.90;;;28.60;47.60;;;;;;4833119;29;86663;-85
2022/08/13 11:48:47;;;;;;;2.20;0.73;;;28.70;46.70;;;;;;4827986;29;88287;-86
2022/08/13 11:51:13;;;;;;;2.58;0.82;;;28.90;46.70;;;;;;4835018;29;86378;-87
2022/08/13 11:53:39;;;;;;;1.67;0.75;;;28.60;47.80;;;;;;4825509;29;86792;-85
2022/08/13 11:56:05;;;;;;;4.00;1.02;;;28.80;46.50;;;;;;4828272;29;85987;-85
2022/08/13 11:58:36;;;;;;;5.13;0.90;;;28.80;47.20;;;;;;4826038;29;87313;-87
2022/08/13 12:01:06;;;;;;;6.90;1.38;;;28.70;46.70;;;;;;4825046;29;86916;-86
2022/08/13 12:03:38;;;;;;;3.08;0.88;;;29.00;46.80;;;;;;4820705;29;87759;-86
2022/08/13 12:06:04;;;;;;;2.28;0.98;;;28.60;48.10;;;;;;4828162;29;86754;-86
2022/08/13 12:08:30;;;;;;;3.42;1.23;;;28.60;48.10;;;;;;4826919;29;87235;-86
2022/08/13 12:10:56;;;;;;;1.42;0.73;;;28.50;48.50;;;;;;4826920;29;86799;-87
2022/08/13 12:13:22;;;;;;;1.65;1.42;;;28.60;49.10;;;;;;4825767;29;86518;-86
2022/08/13 12:15:47;;;;;;;1.92;0.82;;;28.80;46.90;;;;;;4823668;29;86910;-86
2022/08/13 12:18:15;;;;;;;3.33;0.77;;;28.90;47.60;;;;;;4826670;29;87287;-86
2022/08/13 12:20:41;;;;;;;1.65;0.88;;;28.80;44.20;;;;;;4827979;29;87034;-86
2022/08/13 12:23:08;;;;;;;5.55;0.90;;;28.80;49.50;;;;;;4825751;29;86884;-86
2022/08/13 12:25:35;;;;;;;2.70;1.02;;;28.90;48.30;;;;;;4833810;29;86374;-86
2022/08/13 12:28:12;;;;;;;3.35;1.15;;;29.20;47.20;;;;;;4825576;29;88169;-87
2022/08/13 12:30:39;;;;;;;2.55;0.82;;;28.90;47.60;;;;;;4826039;29;87677;-87
2022/08/13 12:33:05;;;;;;;2.00;1.25;;;29.20;45.40;;;;;;4825728;29;86882;-86
2022/08/13 12:35:32;;;;;;;2.95;0.60;;;29.20;45.80;;;;;;4827067;29;88632;-87
2022/08/13 12:37:58;;;;;;;1.77;0.85;;;29.40;46.10;;;;;;4831550;29;86710;-86
2022/08/13 12:40:24;;;;;;;3.00;0.80;;;29.40;44.50;;;;;;4827551;29;86824;-86
2022/08/13 12:42:50;;;;;;;1.88;0.65;;;29.00;45.50;;;;;;4826536;29;86736;-88
2022/08/13 12:45:16;;;;;;;1.73;0.63;;;29.40;44.10;;;;;;4827636;29;86098;-87
2022/08/13 12:47:44;;;;;;;2.65;1.02;;;29.20;45.50;;;;;;4828593;29;86578;-86
2022/08/13 12:50:10;;;;;;;1.70;1.00;;;29.10;44.60;;;;;;4826000;29;86937;-87
2022/08/13 12:52:36;;;;;;;1.20;0.75;;;29.20;45.40;;;;;;4824562;29;87463;-86
2022/08/13 12:55:04;;;;;;;1.98;0.57;;;28.90;44.00;;;;;;4828382;29;86893;-85
2022/08/13 12:57:30;;;;;;;1.50;0.80;;;28.80;44.50;;;;;;4829767;29;87332;-88
2022/08/13 12:59:56;;;;;;;1.17;0.50;;;29.20;45.60;;;;;;4829546;29;86428;-87
2022/08/13 13:02:22;;;;;;;1.85;1.45;;;29.30;46.50;;;;;;4829724;29;86849;-88
2022/08/13 13:04:48;;;;;;;1.80;0.77;;;29.00;43.90;;;;;;4835461;29;86993;-88
2022/08/13 13:07:14;;;;;;;2.25;1.00;;;28.60;43.90;;;;;;4839955;29;86827;-87
2022/08/13 13:09:40;;;;;;;1.65;0.90;;;28.60;45.10;;;;;;4835933;29;88182;-87
2022/08/13 13:12:06;;;;;;;2.20;0.70;;;29.00;46.80;;;;;;4837321;29;86222;-86
2022/08/13 13:14:32;;;;;;;2.03;1.25;;;29.40;46.10;;;;;;4840281;29;86895;-88
2022/08/13 13:16:57;;;;;;;1.42;0.82;;;29.40;43.20;;;;;;4836460;29;88095;-87
2022/08/13 13:19:23;;;;;;;4.15;1.17;;;29.50;44.90;;;;;;4836128;29;87757;-87
2022/08/13 13:21:49;;;;;;;2.03;1.05;;;29.50;44.10;;;;;;4841478;29;86716;-87
2022/08/13 13:24:15;;;;;;;6.30;0.93;;;29.60;42.60;;;;;;4836559;29;86300;-88
2022/08/13 13:26:41;;;;;;;4.97;0.82;;;28.90;42.40;;;;;;4835874;29;87301;-88
2022/08/13 13:29:10;;;;;;;1.73;0.50;;;29.10;44.50;;;;;;4835804;29;86937;-85
2022/08/13 13:31:37;;;;;;;;;;;29.30;44.00;;;;;;4839639;29;86566;-87
2022/08/13 13:34:04;;;;;;;1.70;0.90;;;29.60;43.50;;;;;;4837992;29;85685;-87
2022/08/13 13:36:29;;;;;;;1.65;0.47;;;29.20;44.10;;;;;;4836565;29;87266;-88
2022/08/13 13:38:55;;;;;;;2.38;0.80;;;28.90;41.90;;;;;;4835228;29;86980;-88
2022/08/13 13:41:21;;;;;;;1.20;0.70;;;28.70;44.00;;;;;;4830925;29;87230;-86
2022/08/13 13:43:46;;;;;;;1.67;1.17;;;29.10;43.60;;;;;;4835982;29;86595;-88
2022/08/13 13:46:12;;;;;;;6.32;0.95;;;29.60;43.10;;;;;;4838970;29;87447;-87
2022/08/13 13:48:40;;;;;;;3.13;0.80;;;29.40;44.20;;;;;;4837448;29;86625;-87
2022/08/13 13:51:11;;;;;;;2.38;0.60;;;29.30;43.80;;;;;;4839398;29;86261;-87
2022/08/13 13:53:38;;;;;;;2.47;0.82;;;29.40;44.30;;;;;;4838767;29;86736;-85
2022/08/13 13:56:09;;;;;;;1.17;0.77;;;29.20;43.10;;;;;;4830575;29;86543;-87
2022/08/13 13:58:35;;;;;;;1.30;0.80;;;29.10;42.80;;;;;;4832831;29;86013;-87
2022/08/13 14:01:01;;;;;;;1.83;0.77;;;28.70;44.70;;;;;;4837209;29;86406;-88
2022/08/13 14:03:29;;;;;;;1.65;0.47;;;28.80;43.90;;;;;;4832984;29;86952;-87
2022/08/13 14:05:59;;;;;;;1.20;0.65;;;28.60;43.80;;;;;;4830667;29;89945;-87
2022/08/13 14:08:28;;;;;;;3.08;0.63;;;28.60;44.70;;;;;;4833560;29;89101;-88
2022/08/13 14:11:02;;;;;;;0.80;0.52;;;28.50;45.00;;;;;;4826781;29;86511;-87
2022/08/13 14:13:27;;;;;;;4.03;0.70;;;28.40;42.20;;;;;;4832239;29;87067;-88
2022/08/13 14:15:53;;;;;;;2.20;0.73;;;28.40;43.90;;;;;;4834297;29;86503;-86
2022/08/13 14:18:20;;;;;;;1.45;0.65;;;28.30;43.80;;;;;;4825695;29;86297;-85
2022/08/13 14:20:53;;;;;;;2.22;0.70;;;28.20;44.80;;;;;;4832062;29;86369;-87
2022/08/13 14:23:20;;;;;;;1.83;0.52;;;28.20;44.70;;;;;;4827522;29;85526;-87
2022/08/13 14:25:47;;;;;;;0.82;0.60;;;28.40;44.00;;;;;;4831502;29;88295;-89
2022/08/13 14:28:13;;;;;;;3.17;0.63;;;28.60;44.30;;;;;;4841982;29;87092;-87
2022/08/13 14:30:41;;;;;;;1.58;0.75;;;28.60;45.30;;;;;;4826356;29;88258;-88
2022/08/13 14:33:11;;;;;;;1.65;0.52;;;29.00;44.80;;;;;;4828150;29;86433;-87
2022/08/13 14:35:38;;;;;;;4.88;0.63;;;29.40;44.10;;;;;;4835033;29;86615;-88
2022/08/13 14:38:04;;;;;;;1.40;0.65;;;29.50;43.40;;;;;;4832238;29;86723;-84
2022/08/13 14:40:30;;;;;;;1.63;0.43;;;29.30;44.60;;;;;;4833581;29;86445;-88
2022/08/13 14:42:57;;;;;;;2.25;0.63;;;29.20;43.20;;;;;;4838964;29;86820;-87
2022/08/13 14:45:42;;;;;;;1.52;1.10;;;29.20;42.50;;;;;;4836653;29;87776;-89
2022/08/13 14:48:13;;;;;;;1.70;0.55;;;29.10;42.80;;;;;;4834585;29;88706;-88
2022/08/13 18:34:36;;;;;;;1.23;0.50;;;23.80;46.30;;;;;;5321752;23;89292;-79
2022/08/13 18:37:02;;;;;;;1.70;0.60;;;24.00;46.10;;;;;;4842672;29;87306;-80
2022/08/13 18:39:27;;;;;;;2.40;0.40;;;23.90;46.50;;;;;;4843316;29;86153;-79
2022/08/13 18:41:53;;;;;;;1.90;0.45;;;23.80;46.90;;;;;;4841994;29;86790;-78
2022/08/13 18:44:19;;;;;;;3.20;0.57;;;23.70;47.70;;;;;;4842479;29;87067;-79
2022/08/13 18:46:44;;;;;;;1.95;0.93;;;23.50;47.70;;;;;;4844030;29;89630;-81
2022/08/13 18:49:11;;;;;;;2.30;0.50;;;23.40;46.60;;;;;;4842432;29;87939;-80
2022/08/13 18:51:38;;;;;;;2.08;0.60;;;23.50;46.90;;;;;;4847053;29;86131;-78
2022/08/13 18:54:04;;;;;;;2.05;0.55;;;23.40;47.10;;;;;;4845992;29;87617;-79
2022/08/13 18:56:30;;;;;;;1.10;0.40;;;23.40;48.30;;;;;;4838978;29;88107;-79
2022/08/13 18:58:55;;;;;;;3.58;0.52;;;23.30;48.70;;;;;;4837848;29;86949;-79
2022/08/13 19:01:22;;;;;;;4.35;0.70;;;23.20;48.60;;;;;;4838287;29;87893;-78
2022/08/13 19:03:48;;;;;;;2.97;0.35;;;23.10;49.40;;;;;;4842990;29;86285;-80
2022/08/13 19:06:14;;;;;;;1.52;0.40;;;23.00;49.80;;;;;;4842973;29;87187;-82
2022/08/13 19:08:41;;;;;;;2.08;0.73;;;22.90;50.00;;;;;;4840532;29;87396;-78
2022/08/13 19:11:07;;;;;;;4.30;0.90;;;22.90;49.80;;;;;;4842129;29;87153;-81
2022/08/13 19:13:33;;;;;;;4.28;0.90;;;22.80;50.40;;;;;;4845246;29;87505;-82
2022/08/13 19:16:01;;;;;;;4.97;0.77;;;22.70;51.30;;;;;;4847280;29;88080;-80
2022/08/13 19:18:28;;;;;;;2.85;0.80;;;22.60;50.90;;;;;;4845790;29;86999;-81
2022/08/13 19:20:54;;;;;;;2.63;1.00;;;22.60;52.30;;;;;;4848333;29;87598;-80
2022/08/13 19:23:20;;;;;;;3.70;0.90;;;22.50;52.90;;;;;;4843176;29;86489;-81
2022/08/13 19:25:48;;;;;;;4.82;1.02;;;22.50;53.90;;;;;;4843696;29;87012;-80
2022/08/13 19:28:14;;;;;;;4.15;1.10;;;22.50;53.00;;;;;;4847362;29;88183;-80
2022/08/13 19:30:40;;;;;;;6.25;1.48;;;22.10;53.80;;;;;;4842983;28;88065;-76
2022/08/13 19:33:06;;;;;;;2.85;1.10;;;21.90;53.70;;;;;;4846903;29;86528;-78
2022/08/13 19:35:32;;;;;;;3.65;1.13;;;22.00;54.00;;;;;;4846716;29;88567;-79
2022/08/13 19:38:01;;;;;;;8.05;1.20;;;21.90;53.60;;;;;;4847104;29;87279;-79
2022/08/13 19:40:31;;;;;;;2.83;0.93;;;21.90;53.80;;;;;;4847161;29;86725;-78
2022/08/13 19:42:59;;;;;;;2.25;0.88;;;21.80;53.70;;;;;;4843946;29;86830;-76
2022/08/13 19:45:27;;;;;;;6.40;1.30;;;21.70;53.60;;;;;;4844347;29;86776;-77
2022/08/13 19:47:53;;;;;;;3.33;0.80;;;21.70;54.10;;;;;;4839227;29;86727;-76